sensor_id;sensor_type;location;lat;lon;timestamp;temperature;humidity
18260;DHT22;9256;52.236;5.712;2023-07-13T00:00:53;16.30;99.90
18260;DHT22;9256;52.236;5.712;2023-07-13T00:03:21;16.30;99.90
18260;DHT22;9256;52.236;5.712;2023-07-13T00:05:57;16.30;99.90
18260;DHT22;9256;52.236;5.712;2023-07-13T00:08:26;16.40;99.90
18260;DHT22;9256;52.236;5.712;2023-07-13T00:10:53;16.20;99.90
18260;DHT22;9256;52.236;5.712;2023-07-13T00:13:20;16.40;99.90
18260;DHT22;9256;52.236;5.712;2023-07-13T00:15:47;16.30;99.90
18260;DHT22;9256;52.236;5.712;2023-07-13T00:18:15;16.30;99.90
18260;DHT22;9256;52.236;5.712;2023-07-13T00:20:42;16.30;99.90
18260;DHT22;9256;52.236;5.712;2023-07-13T00:23:09;16.30;99.90
18260;DHT22;9256;52.236;5.712;2023-07-13T00:25:37;16.40;99.90
18260;DHT22;9256;52.236;5.712;2023-07-13T00:28:04;16.30;99.90
18260;DHT22;9256;52.236;5.712;2023-07-13T00:30:31;16.30;99.90
18260;DHT22;9256;52.236;5.712;2023-07-13T00:32:58;16.40;99.90
18260;DHT22;9256;52.236;5.712;2023-07-13T00:35:27;16.40;99.90
18260;DHT22;9256;52.236;5.712;2023-07-13T00:37:56;16.30;99.90
18260;DHT22;9256;52.236;5.712;2023-07-13T00:40:23;16.20;99.90
18260;DHT22;9256;52.236;5.712;2023-07-13T00:42:53;16.10;99.90
18260;DHT22;9256;52.236;5.712;2023-07-13T00:46:11;16.10;99.90
18260;DHT22;9256;52.236;5.712;2023-07-13T00:48:38;16.10;99.90
18260;DHT22;9256;52.236;5.712;2023-07-13T00:51:06;16.10;99.90
18260;DHT22;9256;52.236;5.712;2023-07-13T00:53:34;16.00;99.90
18260;DHT22;9256;52.236;5.712;2023-07-13T00:56:01;15.90;99.90
18260;DHT22;9256;52.236;5.712;2023-07-13T00:58:31;15.90;99.90
18260;DHT22;9256;52.236;5.712;2023-07-13T01:00:58;16.00;99.90
18260;DHT22;9256;52.236;5.712;2023-07-13T01:03:25;16.00;99.90
18260;DHT22;9256;52.236;5.712;2023-07-13T01:05:52;16.00;99.90
18260;DHT22;9256;52.236;5.712;2023-07-13T01:08:20;16.10;99.90
18260;DHT22;9256;52.236;5.712;2023-07-13T01:10:57;16.10;99.90
18260;DHT22;9256;52.236;5.712;2023-07-13T01:13:24;16.00;99.90
18260;DHT22;9256;52.236;5.712;2023-07-13T01:15:55;16.10;99.90
18260;DHT22;9256;52.236;5.712;2023-07-13T01:18:24;16.10;99.90
18260;DHT22;9256;52.236;5.712;2023-07-13T01:20:54;16.20;99.90
18260;DHT22;9256;52.236;5.712;2023-07-13T01:23:22;16.20;99.90
18260;DHT22;9256;52.236;5.712;2023-07-13T01:25:49;16.20;99.90
18260;DHT22;9256;52.236;5.712;2023-07-13T01:28:17;16.20;99.90
18260;DHT22;9256;52.236;5.712;2023-07-13T01:30:45;16.10;99.90
18260;DHT22;9256;52.236;5.712;2023-07-13T01:33:12;16.00;99.90
18260;DHT22;9256;52.236;5.712;2023-07-13T01:35:40;15.90;99.90
18260;DHT22;9256;52.236;5.712;2023-07-13T01:38:08;15.90;99.90
18260;DHT22;9256;52.236;5.712;2023-07-13T01:40:37;15.80;99.90
18260;DHT22;9256;52.236;5.712;2023-07-13T01:43:05;15.70;99.90
18260;DHT22;9256;52.236;5.712;2023-07-13T01:45:32;15.70;99.90
18260;DHT22;9256;52.236;5.712;2023-07-13T01:47:59;15.60;99.90
18260;DHT22;9256;52.236;5.712;2023-07-13T01:50:27;15.60;99.90
18260;DHT22;9256;52.236;5.712;2023-07-13T01:52:54;15.60;99.90
18260;DHT22;9256;52.236;5.712;2023-07-13T01:55:22;15.60;99.90
18260;DHT22;9256;52.236;5.712;2023-07-13T01:57:48;15.60;99.90
18260;DHT22;9256;52.236;5.712;2023-07-13T02:00:15;15.60;99.90
18260;DHT22;9256;52.236;5.712;2023-07-13T02:02:43;15.50;99.90
18260;DHT22;9256;52.236;5.712;2023-07-13T02:05:10;15.50;99.90
18260;DHT22;9256;52.236;5.712;2023-07-13T02:07:38;15.50;99.90
18260;DHT22;9256;52.236;5.712;2023-07-13T02:10:05;15.50;99.90
18260;DHT22;9256;52.236;5.712;2023-07-13T02:12:34;15.50;99.90
18260;DHT22;9256;52.236;5.712;2023-07-13T02:15:03;15.40;99.90
18260;DHT22;9256;52.236;5.712;2023-07-13T02:17:30;15.40;99.90
18260;DHT22;9256;52.236;5.712;2023-07-13T02:19:57;15.40;99.90
18260;DHT22;9256;52.236;5.712;2023-07-13T02:22:24;15.30;99.90
18260;DHT22;9256;52.236;5.712;2023-07-13T02:24:51;15.20;99.90
18260;DHT22;9256;52.236;5.712;2023-07-13T02:27:18;15.20;99.90
18260;DHT22;9256;52.236;5.712;2023-07-13T02:29:47;15.20;99.90
18260;DHT22;9256;52.236;5.712;2023-07-13T02:32:16;15.10;99.90
18260;DHT22;9256;52.236;5.712;2023-07-13T02:34:44;15.10;99.90
18260;DHT22;9256;52.236;5.712;2023-07-13T02:37:11;15.10;99.90
18260;DHT22;9256;52.236;5.712;2023-07-13T02:39:37;15.10;99.90
18260;DHT22;9256;52.236;5.712;2023-07-13T02:42:05;15.10;99.90
18260;DHT22;9256;52.236;5.712;2023-07-13T02:44:32;15.00;99.90
18260;DHT22;9256;52.236;5.712;2023-07-13T02:47:00;14.90;99.90
18260;DHT22;9256;52.236;5.712;2023-07-13T02:49:27;14.90;99.90
18260;DHT22;9256;52.236;5.712;2023-07-13T02:51:54;15.00;99.90
18260;DHT22;9256;52.236;5.712;2023-07-13T02:54:21;15.00;99.90
18260;DHT22;9256;52.236;5.712;2023-07-13T02:56:48;15.00;99.90
18260;DHT22;9256;52.236;5.712;2023-07-13T02:59:15;15.00;99.90
18260;DHT22;9256;52.236;5.712;2023-07-13T03:01:42;14.90;99.90
18260;DHT22;9256;52.236;5.712;2023-07-13T03:04:10;14.90;99.90
18260;DHT22;9256;52.236;5.712;2023-07-13T03:06:37;14.90;99.90
18260;DHT22;9256;52.236;5.712;2023-07-13T03:09:04;14.90;99.90
18260;DHT22;9256;52.236;5.712;2023-07-13T03:11:31;14.90;99.90
18260;DHT22;9256;52.236;5.712;2023-07-13T03:13:58;14.90;99.90
18260;DHT22;9256;52.236;5.712;2023-07-13T03:16:25;14.90;99.90
18260;DHT22;9256;52.236;5.712;2023-07-13T03:18:52;14.80;99.90
18260;DHT22;9256;52.236;5.712;2023-07-13T03:21:20;14.80;99.90
18260;DHT22;9256;52.236;5.712;2023-07-13T03:23:47;14.70;99.90
18260;DHT22;9256;52.236;5.712;2023-07-13T03:26:17;14.70;99.90
18260;DHT22;9256;52.236;5.712;2023-07-13T03:28:45;14.70;99.90
18260;DHT22;9256;52.236;5.712;2023-07-13T03:31:14;14.70;99.90
18260;DHT22;9256;52.236;5.712;2023-07-13T03:33:41;14.70;99.90
18260;DHT22;9256;52.236;5.712;2023-07-13T03:36:14;14.70;99.90
18260;DHT22;9256;52.236;5.712;2023-07-13T03:38:43;14.70;99.90
18260;DHT22;9256;52.236;5.712;2023-07-13T03:41:10;14.70;99.90
18260;DHT22;9256;52.236;5.712;2023-07-13T03:43:37;14.60;99.90
18260;DHT22;9256;52.236;5.712;2023-07-13T03:46:03;14.70;99.90
18260;DHT22;9256;52.236;5.712;2023-07-13T03:48:30;14.60;99.90
18260;DHT22;9256;52.236;5.712;2023-07-13T03:50:57;14.70;99.90
18260;DHT22;9256;52.236;5.712;2023-07-13T03:53:24;14.70;99.90
18260;DHT22;9256;52.236;5.712;2023-07-13T03:55:52;14.80;99.90
18260;DHT22;9256;52.236;5.712;2023-07-13T03:58:28;14.70;99.90
18260;DHT22;9256;52.236;5.712;2023-07-13T04:00:56;14.70;99.90
18260;DHT22;9256;52.236;5.712;2023-07-13T04:03:24;14.70;99.90
18260;DHT22;9256;52.236;5.712;2023-07-13T04:05:54;14.70;99.90
18260;DHT22;9256;52.236;5.712;2023-07-13T04:08:26;14.70;99.90
18260;DHT22;9256;52.236;5.712;2023-07-13T04:10:55;14.80;99.90
18260;DHT22;9256;52.236;5.712;2023-07-13T04:13:22;14.80;99.90
18260;DHT22;9256;52.236;5.712;2023-07-13T04:15:49;14.80;99.90
18260;DHT22;9256;52.236;5.712;2023-07-13T04:18:16;14.80;99.90
18260;DHT22;9256;52.236;5.712;2023-07-13T04:20:43;14.80;99.90
18260;DHT22;9256;52.236;5.712;2023-07-13T04:23:10;14.90;99.90
18260;DHT22;9256;52.236;5.712;2023-07-13T04:25:37;14.90;99.90
18260;DHT22;9256;52.236;5.712;2023-07-13T04:28:06;15.00;99.90
18260;DHT22;9256;52.236;5.712;2023-07-13T04:30:33;15.00;99.90
18260;DHT22;9256;52.236;5.712;2023-07-13T04:33:01;15.00;99.90
18260;DHT22;9256;52.236;5.712;2023-07-13T04:35:28;15.10;99.90
18260;DHT22;9256;52.236;5.712;2023-07-13T04:37:54;15.10;99.90
18260;DHT22;9256;52.236;5.712;2023-07-13T04:40:21;15.10;99.90
18260;DHT22;9256;52.236;5.712;2023-07-13T04:42:48;15.30;99.90
18260;DHT22;9256;52.236;5.712;2023-07-13T04:45:17;15.20;99.90
18260;DHT22;9256;52.236;5.712;2023-07-13T04:47:44;15.30;99.90
18260;DHT22;9256;52.236;5.712;2023-07-13T04:50:13;15.30;99.90
18260;DHT22;9256;52.236;5.712;2023-07-13T04:52:45;15.40;99.90
18260;DHT22;9256;52.236;5.712;2023-07-13T04:55:12;15.50;99.90
18260;DHT22;9256;52.236;5.712;2023-07-13T04:57:39;15.60;99.90
18260;DHT22;9256;52.236;5.712;2023-07-13T05:00:07;15.60;99.90
18260;DHT22;9256;52.236;5.712;2023-07-13T05:02:38;15.70;99.90
18260;DHT22;9256;52.236;5.712;2023-07-13T05:05:06;15.80;99.90
18260;DHT22;9256;52.236;5.712;2023-07-13T05:07:33;15.80;99.90
18260;DHT22;9256;52.236;5.712;2023-07-13T05:10:00;15.90;99.90
18260;DHT22;9256;52.236;5.712;2023-07-13T05:12:27;15.90;99.90
18260;DHT22;9256;52.236;5.712;2023-07-13T05:14:54;16.00;99.90
18260;DHT22;9256;52.236;5.712;2023-07-13T05:17:21;16.20;99.90
18260;DHT22;9256;52.236;5.712;2023-07-13T05:19:50;16.20;99.90
18260;DHT22;9256;52.236;5.712;2023-07-13T05:22:17;16.30;99.90
18260;DHT22;9256;52.236;5.712;2023-07-13T05:24:43;16.40;99.90
18260;DHT22;9256;52.236;5.712;2023-07-13T05:27:10;16.50;99.90
18260;DHT22;9256;52.236;5.712;2023-07-13T05:29:37;16.50;99.90
18260;DHT22;9256;52.236;5.712;2023-07-13T05:32:05;16.50;99.90
18260;DHT22;9256;52.236;5.712;2023-07-13T05:34:32;16.50;99.90
18260;DHT22;9256;52.236;5.712;2023-07-13T05:37:00;16.60;99.90
18260;DHT22;9256;52.236;5.712;2023-07-13T05:39:27;16.60;99.90
18260;DHT22;9256;52.236;5.712;2023-07-13T05:41:54;16.70;99.90
18260;DHT22;9256;52.236;5.712;2023-07-13T05:44:21;16.80;99.90
18260;DHT22;9256;52.236;5.712;2023-07-13T05:46:48;16.90;99.90
18260;DHT22;9256;52.236;5.712;2023-07-13T05:49:15;16.90;99.90
18260;DHT22;9256;52.236;5.712;2023-07-13T05:51:42;17.00;99.90
18260;DHT22;9256;52.236;5.712;2023-07-13T05:54:10;17.20;99.90
18260;DHT22;9256;52.236;5.712;2023-07-13T05:56:37;17.20;99.90
18260;DHT22;9256;52.236;5.712;2023-07-13T05:59:04;17.30;99.90
18260;DHT22;9256;52.236;5.712;2023-07-13T06:01:31;17.40;99.90
18260;DHT22;9256;52.236;5.712;2023-07-13T06:03:58;17.40;99.90
18260;DHT22;9256;52.236;5.712;2023-07-13T06:06:25;17.60;99.90
18260;DHT22;9256;52.236;5.712;2023-07-13T06:08:52;17.70;99.90
18260;DHT22;9256;52.236;5.712;2023-07-13T06:11:22;17.70;99.90
18260;DHT22;9256;52.236;5.712;2023-07-13T06:13:49;17.80;99.90
18260;DHT22;9256;52.236;5.712;2023-07-13T06:16:17;17.80;99.90
18260;DHT22;9256;52.236;5.712;2023-07-13T06:18:44;17.90;99.90
18260;DHT22;9256;52.236;5.712;2023-07-13T06:21:14;17.90;99.90
18260;DHT22;9256;52.236;5.712;2023-07-13T06:23:42;17.90;99.90
18260;DHT22;9256;52.236;5.712;2023-07-13T06:26:09;18.00;99.90
18260;DHT22;9256;52.236;5.712;2023-07-13T06:28:38;18.00;99.90
18260;DHT22;9256;52.236;5.712;2023-07-13T06:31:06;18.10;99.90
18260;DHT22;9256;52.236;5.712;2023-07-13T06:33:33;18.10;99.90
18260;DHT22;9256;52.236;5.712;2023-07-13T06:36:01;18.10;99.90
18260;DHT22;9256;52.236;5.712;2023-07-13T06:38:28;18.20;99.90
18260;DHT22;9256;52.236;5.712;2023-07-13T06:40:55;18.40;99.90
18260;DHT22;9256;52.236;5.712;2023-07-13T06:43:22;18.70;99.90
18260;DHT22;9256;52.236;5.712;2023-07-13T06:45:53;19.00;99.90
18260;DHT22;9256;52.236;5.712;2023-07-13T06:48:21;19.10;99.90
18260;DHT22;9256;52.236;5.712;2023-07-13T06:50:49;19.10;99.90
18260;DHT22;9256;52.236;5.712;2023-07-13T06:53:17;19.20;99.90
18260;DHT22;9256;52.236;5.712;2023-07-13T06:55:45;19.30;99.90
18260;DHT22;9256;52.236;5.712;2023-07-13T06:58:12;19.30;99.90
18260;DHT22;9256;52.236;5.712;2023-07-13T07:00:38;19.10;99.90
18260;DHT22;9256;52.236;5.712;2023-07-13T07:03:07;19.00;99.90
18260;DHT22;9256;52.236;5.712;2023-07-13T07:05:34;19.00;99.90
18260;DHT22;9256;52.236;5.712;2023-07-13T07:08:01;18.90;99.90
18260;DHT22;9256;52.236;5.712;2023-07-13T07:10:30;18.80;99.90
18260;DHT22;9256;52.236;5.712;2023-07-13T07:12:57;18.80;99.90
18260;DHT22;9256;52.236;5.712;2023-07-13T07:15:25;18.70;99.90
18260;DHT22;9256;52.236;5.712;2023-07-13T07:17:52;18.80;99.90
18260;DHT22;9256;52.236;5.712;2023-07-13T07:20:20;19.00;99.90
18260;DHT22;9256;52.236;5.712;2023-07-13T07:22:47;19.30;99.90
18260;DHT22;9256;52.236;5.712;2023-07-13T07:25:14;19.40;99.90
18260;DHT22;9256;52.236;5.712;2023-07-13T07:27:42;19.60;99.90
18260;DHT22;9256;52.236;5.712;2023-07-13T07:30:09;19.60;99.90
18260;DHT22;9256;52.236;5.712;2023-07-13T07:32:36;19.60;99.90
18260;DHT22;9256;52.236;5.712;2023-07-13T07:35:04;19.40;99.90
18260;DHT22;9256;52.236;5.712;2023-07-13T07:37:32;19.40;99.90
18260;DHT22;9256;52.236;5.712;2023-07-13T07:39:59;19.40;99.90
18260;DHT22;9256;52.236;5.712;2023-07-13T07:42:26;19.60;99.90
18260;DHT22;9256;52.236;5.712;2023-07-13T07:44:53;19.80;99.90
18260;DHT22;9256;52.236;5.712;2023-07-13T07:47:20;19.90;99.90
18260;DHT22;9256;52.236;5.712;2023-07-13T07:49:48;19.80;99.90
18260;DHT22;9256;52.236;5.712;2023-07-13T07:52:15;19.80;99.90
18260;DHT22;9256;52.236;5.712;2023-07-13T07:54:44;19.80;99.90
18260;DHT22;9256;52.236;5.712;2023-07-13T07:57:10;19.80;99.90
18260;DHT22;9256;52.236;5.712;2023-07-13T07:59:37;19.60;99.90
18260;DHT22;9256;52.236;5.712;2023-07-13T08:02:05;19.40;99.90
18260;DHT22;9256;52.236;5.712;2023-07-13T08:04:32;19.10;99.90
18260;DHT22;9256;52.236;5.712;2023-07-13T08:06:59;18.90;99.90
18260;DHT22;9256;52.236;5.712;2023-07-13T08:09:28;18.80;99.90
18260;DHT22;9256;52.236;5.712;2023-07-13T08:11:57;18.70;99.90
18260;DHT22;9256;52.236;5.712;2023-07-13T08:14:23;18.70;99.90
18260;DHT22;9256;52.236;5.712;2023-07-13T08:16:50;18.80;99.90
18260;DHT22;9256;52.236;5.712;2023-07-13T08:19:18;19.00;99.90
18260;DHT22;9256;52.236;5.712;2023-07-13T08:21:45;19.00;99.90
18260;DHT22;9256;52.236;5.712;2023-07-13T08:24:16;19.10;99.90
18260;DHT22;9256;52.236;5.712;2023-07-13T08:26:44;19.00;99.90
18260;DHT22;9256;52.236;5.712;2023-07-13T08:29:13;18.90;99.90
18260;DHT22;9256;52.236;5.712;2023-07-13T08:31:42;19.10;99.90
18260;DHT22;9256;52.236;5.712;2023-07-13T08:34:11;19.30;99.90
18260;DHT22;9256;52.236;5.712;2023-07-13T08:36:38;19.40;99.90
18260;DHT22;9256;52.236;5.712;2023-07-13T08:39:05;19.30;99.90
18260;DHT22;9256;52.236;5.712;2023-07-13T08:41:32;19.50;99.90
18260;DHT22;9256;52.236;5.712;2023-07-13T08:44:00;19.90;99.90
18260;DHT22;9256;52.236;5.712;2023-07-13T08:46:34;20.10;99.90
18260;DHT22;9256;52.236;5.712;2023-07-13T08:49:04;20.30;99.90
18260;DHT22;9256;52.236;5.712;2023-07-13T08:51:37;20.20;99.90
18260;DHT22;9256;52.236;5.712;2023-07-13T08:54:14;20.30;99.90
18260;DHT22;9256;52.236;5.712;2023-07-13T08:56:45;20.30;99.90
18260;DHT22;9256;52.236;5.712;2023-07-13T08:59:14;20.10;99.90
18260;DHT22;9256;52.236;5.712;2023-07-13T09:02:14;20.00;99.90
18260;DHT22;9256;52.236;5.712;2023-07-13T09:04:48;20.10;99.90
18260;DHT22;9256;52.236;5.712;2023-07-13T09:07:26;20.60;99.90
18260;DHT22;9256;52.236;5.712;2023-07-13T09:10:05;20.70;99.90
18260;DHT22;9256;52.236;5.712;2023-07-13T09:12:40;20.50;99.90
18260;DHT22;9256;52.236;5.712;2023-07-13T09:15:24;20.20;99.90
18260;DHT22;9256;52.236;5.712;2023-07-13T09:17:57;19.90;99.90
18260;DHT22;9256;52.236;5.712;2023-07-13T09:20:30;19.70;99.90
18260;DHT22;9256;52.236;5.712;2023-07-13T09:23:00;19.50;99.90
18260;DHT22;9256;52.236;5.712;2023-07-13T09:25:30;19.00;99.90
18260;DHT22;9256;52.236;5.712;2023-07-13T09:28:00;18.40;99.90
18260;DHT22;9256;52.236;5.712;2023-07-13T09:30:34;18.00;99.90
18260;DHT22;9256;52.236;5.712;2023-07-13T09:33:05;17.80;99.90
18260;DHT22;9256;52.236;5.712;2023-07-13T09:35:32;17.80;99.90
18260;DHT22;9256;52.236;5.712;2023-07-13T09:38:10;17.90;99.90
18260;DHT22;9256;52.236;5.712;2023-07-13T09:40:46;18.10;99.90
18260;DHT22;9256;52.236;5.712;2023-07-13T09:43:18;18.60;99.90
18260;DHT22;9256;52.236;5.712;2023-07-13T09:45:47;19.20;99.90
18260;DHT22;9256;52.236;5.712;2023-07-13T09:48:17;19.70;99.90
18260;DHT22;9256;52.236;5.712;2023-07-13T09:50:44;19.80;99.90
18260;DHT22;9256;52.236;5.712;2023-07-13T09:53:13;20.10;99.90
18260;DHT22;9256;52.236;5.712;2023-07-13T09:55:41;20.20;99.90
18260;DHT22;9256;52.236;5.712;2023-07-13T09:58:11;20.00;99.90
18260;DHT22;9256;52.236;5.712;2023-07-13T10:00:39;20.10;99.90
18260;DHT22;9256;52.236;5.712;2023-07-13T10:03:18;20.40;99.90
18260;DHT22;9256;52.236;5.712;2023-07-13T10:05:48;20.50;99.90
18260;DHT22;9256;52.236;5.712;2023-07-13T10:08:18;20.60;99.90
18260;DHT22;9256;52.236;5.712;2023-07-13T10:10:46;21.00;99.90
18260;DHT22;9256;52.236;5.712;2023-07-13T10:13:31;21.40;99.90
18260;DHT22;9256;52.236;5.712;2023-07-13T10:16:00;21.80;99.90
18260;DHT22;9256;52.236;5.712;2023-07-13T10:18:29;21.90;99.90
18260;DHT22;9256;52.236;5.712;2023-07-13T10:21:11;21.90;99.90
18260;DHT22;9256;52.236;5.712;2023-07-13T10:23:39;21.50;99.90
18260;DHT22;9256;52.236;5.712;2023-07-13T10:26:12;21.00;99.90
18260;DHT22;9256;52.236;5.712;2023-07-13T10:28:40;20.60;99.90
18260;DHT22;9256;52.236;5.712;2023-07-13T10:31:12;20.20;99.90
18260;DHT22;9256;52.236;5.712;2023-07-13T10:33:41;19.80;99.90
18260;DHT22;9256;52.236;5.712;2023-07-13T10:36:14;19.80;99.90
18260;DHT22;9256;52.236;5.712;2023-07-13T10:38:43;20.30;99.90
18260;DHT22;9256;52.236;5.712;2023-07-13T10:41:15;20.50;99.90
18260;DHT22;9256;52.236;5.712;2023-07-13T10:43:45;20.90;99.90
18260;DHT22;9256;52.236;5.712;2023-07-13T10:46:17;21.40;99.90
18260;DHT22;9256;52.236;5.712;2023-07-13T10:48:49;21.90;99.90
18260;DHT22;9256;52.236;5.712;2023-07-13T10:51:19;22.40;99.90
18260;DHT22;9256;52.236;5.712;2023-07-13T10:53:48;22.40;99.90
18260;DHT22;9256;52.236;5.712;2023-07-13T10:56:36;22.10;99.90
18260;DHT22;9256;52.236;5.712;2023-07-13T10:59:11;21.70;99.90
18260;DHT22;9256;52.236;5.712;2023-07-13T11:01:41;21.10;99.90
18260;DHT22;9256;52.236;5.712;2023-07-13T11:04:13;21.40;99.90
18260;DHT22;9256;52.236;5.712;2023-07-13T11:06:42;21.80;99.90
18260;DHT22;9256;52.236;5.712;2023-07-13T11:09:36;22.30;99.90
18260;DHT22;9256;52.236;5.712;2023-07-13T11:12:10;22.60;99.90
18260;DHT22;9256;52.236;5.712;2023-07-13T11:15:05;22.30;99.90
18260;DHT22;9256;52.236;5.712;2023-07-13T11:17:37;22.30;99.90
18260;DHT22;9256;52.236;5.712;2023-07-13T11:20:23;22.70;99.90
18260;DHT22;9256;52.236;5.712;2023-07-13T11:23:09;22.60;99.90
18260;DHT22;9256;52.236;5.712;2023-07-13T11:25:37;22.60;99.90
18260;DHT22;9256;52.236;5.712;2023-07-13T11:28:15;22.90;99.90
18260;DHT22;9256;52.236;5.712;2023-07-13T11:30:46;23.20;99.90
18260;DHT22;9256;52.236;5.712;2023-07-13T11:33:19;23.00;99.90
18260;DHT22;9256;52.236;5.712;2023-07-13T11:35:53;22.40;99.90
18260;DHT22;9256;52.236;5.712;2023-07-13T11:38:29;21.90;99.90
18260;DHT22;9256;52.236;5.712;2023-07-13T11:41:00;21.10;99.90
18260;DHT22;9256;52.236;5.712;2023-07-13T11:43:30;20.50;99.90
18260;DHT22;9256;52.236;5.712;2023-07-13T11:46:11;20.10;99.90
18260;DHT22;9256;52.236;5.712;2023-07-13T11:48:38;19.90;99.90
18260;DHT22;9256;52.236;5.712;2023-07-13T11:51:06;20.00;99.90
18260;DHT22;9256;52.236;5.712;2023-07-13T11:53:38;20.70;99.90
18260;DHT22;9256;52.236;5.712;2023-07-13T11:56:06;21.00;99.90
18260;DHT22;9256;52.236;5.712;2023-07-13T11:58:34;21.30;99.90
18260;DHT22;9256;52.236;5.712;2023-07-13T12:01:02;21.50;99.90
18260;DHT22;9256;52.236;5.712;2023-07-13T12:03:33;21.90;99.90
18260;DHT22;9256;52.236;5.712;2023-07-13T12:06:02;21.80;99.90
18260;DHT22;9256;52.236;5.712;2023-07-13T12:08:31;21.50;99.90
18260;DHT22;9256;52.236;5.712;2023-07-13T12:11:05;21.20;99.90
18260;DHT22;9256;52.236;5.712;2023-07-13T12:13:37;21.10;99.90
18260;DHT22;9256;52.236;5.712;2023-07-13T12:16:14;21.10;99.90
18260;DHT22;9256;52.236;5.712;2023-07-13T12:18:43;21.30;99.90
18260;DHT22;9256;52.236;5.712;2023-07-13T12:21:17;22.10;99.90
18260;DHT22;9256;52.236;5.712;2023-07-13T12:23:47;22.90;99.90
18260;DHT22;9256;52.236;5.712;2023-07-13T12:26:15;23.30;99.90
18260;DHT22;9256;52.236;5.712;2023-07-13T12:28:48;23.10;99.90
18260;DHT22;9256;52.236;5.712;2023-07-13T12:31:31;23.00;99.90
18260;DHT22;9256;52.236;5.712;2023-07-13T12:34:00;22.50;99.90
18260;DHT22;9256;52.236;5.712;2023-07-13T12:36:31;22.30;99.90
18260;DHT22;9256;52.236;5.712;2023-07-13T12:39:04;22.20;99.90
18260;DHT22;9256;52.236;5.712;2023-07-13T12:41:32;22.20;99.90
18260;DHT22;9256;52.236;5.712;2023-07-13T12:44:01;22.60;99.90
18260;DHT22;9256;52.236;5.712;2023-07-13T12:46:28;23.00;99.90
18260;DHT22;9256;52.236;5.712;2023-07-13T12:48:57;23.60;99.90
18260;DHT22;9256;52.236;5.712;2023-07-13T12:51:26;23.60;99.90
18260;DHT22;9256;52.236;5.712;2023-07-13T12:53:57;22.90;99.90
18260;DHT22;9256;52.236;5.712;2023-07-13T12:56:26;22.40;99.90
18260;DHT22;9256;52.236;5.712;2023-07-13T12:58:58;22.00;99.90
18260;DHT22;9256;52.236;5.712;2023-07-13T13:01:29;21.80;99.90
18260;DHT22;9256;52.236;5.712;2023-07-13T13:04:01;22.40;99.90
18260;DHT22;9256;52.236;5.712;2023-07-13T13:06:31;23.60;99.90
18260;DHT22;9256;52.236;5.712;2023-07-13T13:08:59;24.70;99.90
18260;DHT22;9256;52.236;5.712;2023-07-13T13:11:28;24.00;99.90
18260;DHT22;9256;52.236;5.712;2023-07-13T13:13:56;23.40;99.90
18260;DHT22;9256;52.236;5.712;2023-07-13T13:16:31;23.00;99.90
18260;DHT22;9256;52.236;5.712;2023-07-13T13:19:00;22.70;99.90
18260;DHT22;9256;52.236;5.712;2023-07-13T13:21:32;22.20;99.90
18260;DHT22;9256;52.236;5.712;2023-07-13T13:23:58;22.00;99.90
18260;DHT22;9256;52.236;5.712;2023-07-13T13:26:25;22.20;99.90
18260;DHT22;9256;52.236;5.712;2023-07-13T13:28:52;23.60;99.90
18260;DHT22;9256;52.236;5.712;2023-07-13T13:31:19;23.90;99.90
18260;DHT22;9256;52.236;5.712;2023-07-13T13:33:48;23.90;99.90
18260;DHT22;9256;52.236;5.712;2023-07-13T13:36:15;23.30;99.90
18260;DHT22;9256;52.236;5.712;2023-07-13T13:38:43;22.80;99.90
18260;DHT22;9256;52.236;5.712;2023-07-13T13:41:12;22.50;99.90
18260;DHT22;9256;52.236;5.712;2023-07-13T13:43:40;22.20;99.90
18260;DHT22;9256;52.236;5.712;2023-07-13T13:46:14;22.30;99.90
18260;DHT22;9256;52.236;5.712;2023-07-13T13:48:42;23.10;99.90
18260;DHT22;9256;52.236;5.712;2023-07-13T13:51:16;23.10;99.90
18260;DHT22;9256;52.236;5.712;2023-07-13T13:53:47;22.80;99.90
18260;DHT22;9256;52.236;5.712;2023-07-13T13:56:14;22.10;99.90
18260;DHT22;9256;52.236;5.712;2023-07-13T13:58:41;21.90;99.90
18260;DHT22;9256;52.236;5.712;2023-07-13T14:01:12;22.00;99.90
18260;DHT22;9256;52.236;5.712;2023-07-13T14:03:40;22.50;99.90
18260;DHT22;9256;52.236;5.712;2023-07-13T14:06:10;22.60;99.90
18260;DHT22;9256;52.236;5.712;2023-07-13T14:08:39;23.50;99.90
18260;DHT22;9256;52.236;5.712;2023-07-13T14:11:11;25.10;99.90
18260;DHT22;9256;52.236;5.712;2023-07-13T14:13:40;26.30;99.90
18260;DHT22;9256;52.236;5.712;2023-07-13T14:16:11;27.50;99.90
18260;DHT22;9256;52.236;5.712;2023-07-13T14:18:41;28.10;99.90
18260;DHT22;9256;52.236;5.712;2023-07-13T14:21:12;26.70;99.90
18260;DHT22;9256;52.236;5.712;2023-07-13T14:23:42;25.20;99.90
18260;DHT22;9256;52.236;5.712;2023-07-13T14:26:12;24.40;99.90
18260;DHT22;9256;52.236;5.712;2023-07-13T14:28:43;24.70;99.90
18260;DHT22;9256;52.236;5.712;2023-07-13T14:31:10;24.70;99.90
18260;DHT22;9256;52.236;5.712;2023-07-13T14:33:37;24.00;99.90
18260;DHT22;9256;52.236;5.712;2023-07-13T14:36:26;23.50;99.90
18260;DHT22;9256;52.236;5.712;2023-07-13T14:38:56;23.50;99.90
18260;DHT22;9256;52.236;5.712;2023-07-13T14:41:23;23.80;99.90
18260;DHT22;9256;52.236;5.712;2023-07-13T14:43:50;24.30;99.90
18260;DHT22;9256;52.236;5.712;2023-07-13T14:46:27;24.50;99.90
18260;DHT22;9256;52.236;5.712;2023-07-13T14:49:02;24.50;99.90
18260;DHT22;9256;52.236;5.712;2023-07-13T14:51:34;23.90;99.90
18260;DHT22;9256;52.236;5.712;2023-07-13T14:54:03;23.40;99.90
18260;DHT22;9256;52.236;5.712;2023-07-13T14:56:31;23.20;99.90
18260;DHT22;9256;52.236;5.712;2023-07-13T14:58:58;23.20;99.90
18260;DHT22;9256;52.236;5.712;2023-07-13T15:01:25;23.10;99.90
18260;DHT22;9256;52.236;5.712;2023-07-13T15:03:53;23.20;99.90
18260;DHT22;9256;52.236;5.712;2023-07-13T15:06:20;23.20;99.90
18260;DHT22;9256;52.236;5.712;2023-07-13T15:08:47;23.30;99.90
18260;DHT22;9256;52.236;5.712;2023-07-13T15:11:16;23.40;99.90
18260;DHT22;9256;52.236;5.712;2023-07-13T15:13:44;23.50;99.90
18260;DHT22;9256;52.236;5.712;2023-07-13T15:16:16;23.60;99.90
18260;DHT22;9256;52.236;5.712;2023-07-13T15:18:44;23.60;99.90
18260;DHT22;9256;52.236;5.712;2023-07-13T15:21:14;24.30;99.90
18260;DHT22;9256;52.236;5.712;2023-07-13T15:23:43;24.30;99.90
18260;DHT22;9256;52.236;5.712;2023-07-13T15:26:12;23.80;99.90
18260;DHT22;9256;52.236;5.712;2023-07-13T15:28:41;23.50;99.90
18260;DHT22;9256;52.236;5.712;2023-07-13T15:31:19;23.30;99.90
18260;DHT22;9256;52.236;5.712;2023-07-13T15:33:48;23.30;99.90
18260;DHT22;9256;52.236;5.712;2023-07-13T15:36:16;23.20;99.90
18260;DHT22;9256;52.236;5.712;2023-07-13T15:38:44;23.30;99.90
18260;DHT22;9256;52.236;5.712;2023-07-13T15:41:16;23.70;99.90
18260;DHT22;9256;52.236;5.712;2023-07-13T15:43:44;24.40;99.90
18260;DHT22;9256;52.236;5.712;2023-07-13T15:46:11;24.90;99.90
18260;DHT22;9256;52.236;5.712;2023-07-13T15:48:39;24.80;99.90
18260;DHT22;9256;52.236;5.712;2023-07-13T15:51:12;24.20;99.90
18260;DHT22;9256;52.236;5.712;2023-07-13T15:53:41;23.70;99.90
18260;DHT22;9256;52.236;5.712;2023-07-13T15:56:17;23.30;99.90
18260;DHT22;9256;52.236;5.712;2023-07-13T15:58:46;23.50;99.90